Time;durP1;ratioP1;P1;durP2;ratioP2;P2;SDS_P1;SDS_P2;PMS_P1;PMS_P2;Temp;Humidity;BMP_temperature;BMP_pressure;BME280_temperature;BME280_humidity;BME280_pressure;Samples;Min_cycle;Max_cycle;Signal;HPM_P1;HPM_P2
2021/06/13 20:30:19;;;;;;;5.90;2.05;;;21.60;46.40;;;;;;6099543;23;20030;-73
2021/06/13 20:32:50;;;;;;;5.05;2.22;;;21.50;46.60;;;;;;6070328;23;20022;-73
2021/06/13 20:35:18;;;;;;;8.73;3.35;;;21.50;45.90;;;;;;6069951;23;20019;-72
2021/06/13 20:37:45;;;;;;;6.22;2.58;;;21.40;46.00;;;;;;6070387;23;20081;-76
2021/06/13 20:40:12;;;;;;;5.20;2.08;;;21.40;45.50;;;;;;6096562;23;20041;-76
2021/06/13 20:42:39;;;;;;;7.72;2.30;;;21.20;45.60;;;;;;6096517;23;20014;-72
2021/06/13 20:45:07;;;;;;;8.38;2.20;;;21.10;45.80;;;;;;6096627;23;20015;-76
2021/06/13 20:47:36;;;;;;;6.63;2.00;;;21.00;45.60;;;;;;6097832;23;20392;-76
2021/06/13 20:50:08;;;;;;;7.13;2.15;;;20.90;45.70;;;;;;6071917;23;20349;-73
2021/06/13 20:52:35;;;;;;;6.30;1.90;;;20.90;45.30;;;;;;6096341;23;20014;-76
2021/06/13 20:55:02;;;;;;;5.93;2.40;;;20.70;45.20;;;;;;6072428;23;20014;-76
2021/06/13 20:57:28;;;;;;;8.63;2.95;;;20.70;45.40;;;;;;6072466;23;20021;-76
2021/06/13 20:59:57;;;;;;;7.00;2.38;;;20.60;45.70;;;;;;6097933;23;20022;-72
2021/06/13 21:02:23;;;;;;;7.00;2.30;;;20.60;45.80;;;;;;6072160;23;20024;-76
2021/06/13 21:04:49;;;;;;;7.07;2.10;;;20.50;45.70;;;;;;6097423;23;20035;-72
2021/06/13 21:07:22;;;;;;;7.80;2.45;;;20.40;45.70;;;;;;6072342;23;20018;-76
2021/06/13 21:09:48;;;;;;;6.55;2.20;;;20.30;45.70;;;;;;6097922;23;20022;-75
2021/06/13 21:12:14;;;;;;;6.13;2.00;;;20.20;45.80;;;;;;6097470;23;20011;-73
2021/06/13 21:14:40;;;;;;;;;;;20.20;46.00;;;;;;6098002;23;20038;-76
2021/06/13 21:17:07;;;;;;;6.57;2.15;;;20.10;46.10;;;;;;6072112;23;19952;-76
2021/06/13 21:19:34;;;;;;;7.13;2.45;;;20.10;45.90;;;;;;6048122;23;20015;-73
2021/06/13 21:22:00;;;;;;;5.10;1.98;;;20.00;46.00;;;;;;6048142;23;20066;-72
2021/06/13 21:24:26;;;;;;;5.80;2.65;;;19.90;46.20;;;;;;6097362;23;20377;-75
2021/06/13 21:26:52;;;;;;;5.43;2.58;;;19.90;46.20;;;;;;6096195;23;20081;-76
2021/06/13 21:29:20;;;;;;;6.85;2.45;;;19.80;45.30;;;;;;6047820;23;20046;-75
2021/06/13 21:31:46;;;;;;;5.38;2.10;;;19.70;45.50;;;;;;6072071;23;20015;-76
2021/06/13 21:34:14;;;;;;;5.95;2.30;;;19.60;46.00;;;;;;6097418;23;20343;-76
2021/06/13 21:36:40;;;;;;;6.65;2.38;;;19.50;45.90;;;;;;6072124;23;20403;-76
2021/06/13 21:39:07;;;;;;;5.55;2.17;;;19.50;46.20;;;;;;6097092;23;20010;-76
2021/06/13 21:41:34;;;;;;;7.43;2.00;;;19.40;45.70;;;;;;6071836;23;20010;-72
2021/06/13 21:44:01;;;;;;;5.85;2.22;;;19.40;46.20;;;;;;6095967;23;20363;-76
2021/06/13 21:46:27;;;;;;;4.35;1.80;;;19.40;46.40;;;;;;6048176;23;20336;-72
2021/06/13 21:48:54;;;;;;;6.90;2.10;;;19.30;46.40;;;;;;6071791;23;20095;-76
2021/06/13 21:51:21;;;;;;;9.80;2.35;;;19.30;46.10;;;;;;6097282;23;20061;-76
2021/06/13 21:56:32;;;;;;;5.55;2.10;;;19.20;45.90;;;;;;6075598;23;20076;-76
2021/06/13 21:58:59;;;;;;;10.52;2.08;;;19.10;46.10;;;;;;6097181;23;20058;-73
2021/06/13 22:01:25;;;;;;;5.03;2.50;;;19.10;46.20;;;;;;6071818;23;20037;-71
2021/06/13 22:03:52;;;;;;;;;;;19.00;46.10;;;;;;6097619;23;20010;-73
2021/06/13 22:06:18;;;;;;;5.85;2.08;;;19.00;46.10;;;;;;6097357;23;19909;-76
2021/06/13 22:08:46;;;;;;;7.10;1.85;;;18.90;45.90;;;;;;6071421;23;20432;-72
2021/06/13 22:11:13;;;;;;;6.95;2.10;;;18.90;46.00;;;;;;6095533;23;20027;-73
2021/06/13 22:13:41;;;;;;;5.97;2.42;;;18.80;45.90;;;;;;6095624;23;20042;-76
2021/06/13 22:16:10;;;;;;;5.53;2.20;;;18.80;45.70;;;;;;6071291;23;20022;-72
2021/06/13 22:18:36;;;;;;;6.18;1.80;;;18.70;45.90;;;;;;6095660;23;20013;-72
2021/06/13 22:21:03;;;;;;;6.38;2.30;;;18.80;46.20;;;;;;6095814;23;20115;-73
2021/06/13 22:23:30;;;;;;;6.07;1.92;;;18.70;46.10;;;;;;6095665;23;20057;-73
2021/06/13 22:25:56;;;;;;;6.03;2.08;;;18.70;45.80;;;;;;6097491;23;20042;-72
2021/06/13 22:28:23;;;;;;;4.47;1.70;;;18.60;44.70;;;;;;6095600;23;20030;-72
2021/06/13 22:30:51;;;;;;;7.85;2.10;;;18.60;44.20;;;;;;6096623;23;20077;-75
2021/06/13 22:33:18;;;;;;;8.38;1.85;;;18.50;44.30;;;;;;6095582;23;20041;-76
2021/06/13 22:35:46;;;;;;;6.28;1.65;;;18.50;44.40;;;;;;6095705;23;20388;-73
2021/06/13 22:38:13;;;;;;;4.00;1.55;;;18.50;44.10;;;;;;6097077;23;20010;-76
2021/06/13 22:40:39;;;;;;;6.90;1.45;;;18.50;44.30;;;;;;6097224;23;20117;-72
2021/06/13 22:43:07;;;;;;;8.13;2.38;;;18.40;43.80;;;;;;6071573;23;20395;-73
2021/06/13 22:45:34;;;;;;;6.38;2.08;;;18.40;44.30;;;;;;6095392;23;20025;-76
2021/06/13 22:48:00;;;;;;;5.75;1.67;;;18.30;43.90;;;;;;6095455;23;20010;-73
2021/06/13 22:50:27;;;;;;;4.38;1.83;;;18.30;44.00;;;;;;6095378;23;20014;-76
2021/06/13 22:53:00;;;;;;;4.95;1.83;;;18.30;44.60;;;;;;6096812;23;20010;-73
2021/06/13 22:55:26;;;;;;;5.93;1.55;;;18.20;44.60;;;;;;6070161;23;20018;-72
2021/06/13 22:57:53;;;;;;;5.82;1.85;;;18.20;45.70;;;;;;6095399;23;20092;-72
2021/06/13 23:00:40;;;;;;;4.82;1.90;;;18.10;45.10;;;;;;6097007;23;20065;-75
2021/06/13 23:03:28;;;;;;;5.90;1.63;;;18.10;45.20;;;;;;6097047;23;20318;-75
2021/06/13 23:05:54;;;;;;;7.90;1.90;;;18.00;45.20;;;;;;6097119;23;20020;-76
2021/06/13 23:08:21;;;;;;;6.40;2.20;;;18.10;46.60;;;;;;6097029;23;20101;-75
2021/06/13 23:10:49;;;;;;;5.95;2.10;;;18.00;45.80;;;;;;6071443;23;20335;-76
2021/06/13 23:13:18;;;;;;;4.10;1.67;;;17.90;45.90;;;;;;6095292;23;20074;-76
2021/06/13 23:15:44;;;;;;;7.30;2.30;;;17.90;46.30;;;;;;6071800;23;20019;-75
2021/06/13 23:18:11;;;;;;;6.15;1.60;;;17.80;46.10;;;;;;6071473;23;20018;-76
2021/06/13 23:20:37;;;;;;;6.05;1.95;;;17.80;45.70;;;;;;6096933;23;20069;-73
2021/06/13 23:23:03;;;;;;;10.55;2.10;;;17.70;46.40;;;;;;6071295;23;20017;-72
2021/06/13 23:25:30;;;;;;;5.32;2.08;;;17.70;46.20;;;;;;6071279;23;20018;-72
2021/06/13 23:27:56;;;;;;;5.55;1.90;;;17.70;46.50;;;;;;6071331;23;20010;-76
2021/06/13 23:30:23;;;;;;;4.13;1.80;;;17.70;46.60;;;;;;6096374;23;20324;-76
2021/06/13 23:32:53;;;;;;;6.40;2.03;;;17.60;46.00;;;;;;6095216;23;20013;-73
2021/06/13 23:35:20;;;;;;;4.45;2.03;;;17.60;46.50;;;;;;6094172;23;20026;-73
2021/06/13 23:37:48;;;;;;;4.22;2.10;;;17.50;47.00;;;;;;6096548;23;20077;-76
2021/06/13 23:40:19;;;;;;;6.03;1.95;;;17.50;47.20;;;;;;6047149;23;20384;-73
2021/06/13 23:42:45;;;;;;;6.65;1.92;;;17.50;47.60;;;;;;6070885;23;20010;-72
2021/06/13 23:45:12;;;;;;;4.53;2.00;;;17.50;47.70;;;;;;6071261;23;20030;-76
2021/06/13 23:47:39;;;;;;;5.43;2.00;;;17.40;47.50;;;;;;6095043;23;20010;-73
2021/06/13 23:50:08;;;;;;;4.80;1.65;;;17.40;47.60;;;;;;6071235;23;20025;-73
2021/06/13 23:52:35;;;;;;;6.85;2.20;;;17.40;48.40;;;;;;6095064;23;20061;-76
2021/06/13 23:55:18;;;;;;;3.95;1.67;;;17.30;48.30;;;;;;6094991;23;20428;-73
2021/06/13 23:57:45;;;;;;;5.63;1.80;;;17.30;48.10;;;;;;6071140;23;20015;-73
